createdAt,value
2018-04-30T00:00:24.244Z,8.20
2018-04-30T00:02:51.211Z,5.80
2018-04-30T00:05:18.935Z,5.77
2018-04-30T00:07:45.792Z,5.00
2018-04-30T00:10:13.345Z,5.57
2018-04-30T00:12:40.264Z,5.80
2018-04-30T00:15:07.207Z,4.83
2018-04-30T00:17:34.082Z,5.10
2018-04-30T00:20:01.020Z,5.37
2018-04-30T00:22:27.944Z,5.27
2018-04-30T00:24:54.890Z,4.17
2018-04-30T00:27:21.818Z,3.70
2018-04-30T00:29:52.998Z,3.20
2018-04-30T00:32:19.882Z,4.03
2018-04-30T00:34:46.817Z,3.47
2018-04-30T00:37:13.681Z,3.40
2018-04-30T00:39:41.350Z,3.37
2018-04-30T00:42:08.964Z,3.20
2018-04-30T00:44:35.910Z,3.83
2018-04-30T00:47:02.876Z,2.50
2018-04-30T00:49:29.737Z,2.57
2018-04-30T00:51:56.651Z,3.17
2018-04-30T00:54:35.780Z,2.87
2018-04-30T00:57:02.773Z,3.17
2018-04-30T00:59:29.680Z,2.43
2018-04-30T01:01:56.551Z,2.20
2018-04-30T01:04:23.477Z,2.17
2018-04-30T01:06:50.450Z,2.10
2018-04-30T01:09:18.119Z,2.30
2018-04-30T01:11:45.798Z,2.50
2018-04-30T01:14:12.660Z,2.20
2018-04-30T01:16:39.620Z,2.10
2018-04-30T01:19:06.485Z,2.00
2018-04-30T01:21:33.428Z,1.67
2018-04-30T01:24:00.383Z,1.53
2018-04-30T01:26:27.379Z,2.10
2018-04-30T01:28:54.304Z,1.33
2018-04-30T01:31:21.954Z,1.47
2018-04-30T01:33:48.865Z,1.17
2018-04-30T01:36:15.716Z,1.43
2018-04-30T01:38:42.652Z,1.37
2018-04-30T01:41:09.557Z,1.30
2018-04-30T01:43:36.483Z,2.23
2018-04-30T01:46:03.430Z,1.47
2018-04-30T01:48:30.405Z,1.20
2018-04-30T01:50:57.365Z,1.40
2018-04-30T01:53:24.237Z,1.20
2018-04-30T01:55:51.196Z,1.53
2018-04-30T01:58:18.069Z,1.47
2018-04-30T02:00:45.764Z,1.97
2018-04-30T02:03:12.722Z,1.53
2018-04-30T02:05:39.669Z,1.77
2018-04-30T02:08:06.554Z,1.90
2018-04-30T02:10:33.502Z,1.40
2018-04-30T02:13:01.322Z,1.23
2018-04-30T02:15:28.236Z,1.60
2018-04-30T02:17:55.154Z,1.83
2018-04-30T02:20:22.004Z,1.80
2018-04-30T02:22:48.945Z,1.30
2018-04-30T02:25:15.819Z,1.50
2018-04-30T02:27:42.750Z,1.60
2018-04-30T02:30:09.684Z,1.20
2018-04-30T02:32:36.619Z,1.33
2018-04-30T02:35:03.570Z,1.50
2018-04-30T02:37:30.516Z,1.00
2018-04-30T02:39:57.377Z,1.43
2018-04-30T02:42:24.980Z,1.67
2018-04-30T02:44:51.900Z,1.13
2018-04-30T02:47:18.766Z,1.03
2018-04-30T02:49:45.731Z,0.93
2018-04-30T02:52:12.608Z,0.90
2018-04-30T02:54:39.548Z,0.90
2018-04-30T02:57:06.525Z,1.40
2018-04-30T02:59:34.122Z,0.83
2018-04-30T03:02:01.059Z,1.10
2018-04-30T03:04:28.001Z,0.80
2018-04-30T03:06:54.925Z,1.20
2018-04-30T03:09:21.804Z,1.17
2018-04-30T03:11:48.686Z,1.00
2018-04-30T03:14:15.647Z,1.10
2018-04-30T03:16:43.253Z,0.90
2018-04-30T03:19:10.189Z,1.83
2018-04-30T03:21:37.053Z,0.90
2018-04-30T03:24:04.069Z,0.70
2018-04-30T03:26:30.971Z,1.10
2018-04-30T03:28:57.842Z,0.90
2018-04-30T03:31:24.819Z,0.90
2018-04-30T03:33:51.674Z,0.90
2018-04-30T03:36:18.651Z,1.30
2018-04-30T03:38:45.535Z,0.70
2018-04-30T03:41:12.413Z,0.70
2018-04-30T03:43:39.378Z,0.57
2018-04-30T03:46:06.253Z,0.80
2018-04-30T03:48:33.194Z,0.70
2018-04-30T03:51:00.064Z,1.43
2018-04-30T03:53:26.985Z,0.60
2018-04-30T03:55:54.109Z,0.90
2018-04-30T03:58:21.047Z,0.90
2018-04-30T04:01:00.097Z,0.80
2018-04-30T04:03:39.079Z,0.90
2018-04-30T04:06:18.110Z,1.10
2018-04-30T04:08:45.112Z,0.90
2018-04-30T04:11:12.066Z,0.60
2018-04-30T04:13:39.744Z,1.00
2018-04-30T04:16:06.658Z,0.70
2018-04-30T04:18:33.647Z,0.97
2018-04-30T04:21:00.633Z,0.70
2018-04-30T04:23:27.498Z,0.87
2018-04-30T04:25:56.523Z,0.60
2018-04-30T04:28:37.940Z,0.70
2018-04-30T04:31:05.782Z,0.53
2018-04-30T04:33:32.690Z,0.60
2018-04-30T04:35:59.629Z,0.60
2018-04-30T04:38:26.569Z,0.50
2018-04-30T04:40:54.447Z,0.97
2018-04-30T04:43:21.612Z,0.60
2018-04-30T04:45:49.348Z,0.70
2018-04-30T04:48:28.472Z,0.50
2018-04-30T04:50:55.374Z,0.67
2018-04-30T04:53:27.873Z,0.70
2018-04-30T04:55:55.003Z,0.57
2018-04-30T04:58:22.630Z,0.50
2018-04-30T05:00:49.607Z,0.50
2018-04-30T05:03:17.213Z,0.60
2018-04-30T05:05:44.141Z,0.57
2018-04-30T05:08:11.010Z,0.60
2018-04-30T05:10:37.972Z,0.60
2018-04-30T05:13:04.859Z,0.60
2018-04-30T05:15:31.849Z,1.00
2018-04-30T05:17:58.838Z,0.90
2018-04-30T05:20:26.514Z,0.60
2018-04-30T05:22:53.457Z,0.50
2018-04-30T05:25:21.070Z,0.70
2018-04-30T05:27:48.015Z,0.50
2018-04-30T05:30:14.910Z,0.80
2018-04-30T05:32:42.591Z,0.40
2018-04-30T05:35:09.470Z,0.60
2018-04-30T05:37:36.398Z,0.70
2018-04-30T05:40:03.490Z,0.67
2018-04-30T05:42:30.376Z,0.90
2018-04-30T05:44:57.266Z,0.63
2018-04-30T05:47:24.217Z,0.90
2018-04-30T05:49:51.200Z,0.80
2018-04-30T05:52:18.164Z,0.67
2018-04-30T05:54:45.042Z,0.50
2018-04-30T05:57:12.062Z,0.60
2018-04-30T05:59:38.926Z,0.70
2018-04-30T06:02:05.889Z,0.50
2018-04-30T06:04:32.758Z,0.80
2018-04-30T06:06:59.693Z,0.50
2018-04-30T06:09:27.313Z,0.50
2018-04-30T06:11:54.253Z,0.80
2018-04-30T06:14:21.128Z,0.57
2018-04-30T06:16:48.050Z,0.60
2018-04-30T06:19:14.946Z,0.90
2018-04-30T06:21:42.659Z,0.80
2018-04-30T06:24:09.522Z,0.80
2018-04-30T06:26:36.491Z,0.97
2018-04-30T06:29:04.148Z,1.07
2018-04-30T06:31:31.096Z,0.97
2018-04-30T06:34:07.131Z,0.97
2018-04-30T06:36:34.069Z,0.80
2018-04-30T06:39:00.933Z,1.23
2018-04-30T06:41:27.866Z,1.13
2018-04-30T06:43:54.874Z,1.17
2018-04-30T06:46:21.824Z,1.60
2018-04-30T06:48:48.767Z,1.00
2018-04-30T06:51:15.694Z,1.43
2018-04-30T06:53:42.631Z,1.33
2018-04-30T06:56:10.250Z,1.30
2018-04-30T06:58:37.191Z,1.20
2018-04-30T07:01:04.071Z,1.10
2018-04-30T07:03:31.015Z,1.23
2018-04-30T07:05:57.885Z,1.60
2018-04-30T07:08:24.823Z,1.10
2018-04-30T07:10:51.760Z,1.57
2018-04-30T07:13:18.618Z,1.13
2018-04-30T07:15:45.573Z,1.30
2018-04-30T07:18:12.501Z,1.40
2018-04-30T07:20:39.438Z,1.20
2018-04-30T07:23:06.299Z,1.53
2018-04-30T07:25:33.909Z,1.53
2018-04-30T07:28:00.769Z,1.40
2018-04-30T07:30:27.722Z,1.00
2018-04-30T07:32:54.599Z,1.23
2018-04-30T07:35:21.530Z,1.00
2018-04-30T07:37:48.467Z,1.77
2018-04-30T07:40:15.458Z,1.10
2018-04-30T07:42:42.332Z,1.47
2018-04-30T07:45:09.295Z,0.93
2018-04-30T07:47:36.250Z,1.23
2018-04-30T07:50:03.210Z,1.07
2018-04-30T07:52:30.417Z,1.27
2018-04-30T07:54:57.266Z,1.50
2018-04-30T07:57:24.206Z,1.13
2018-04-30T07:59:51.142Z,1.00
2018-04-30T08:02:18.072Z,1.70
2018-04-30T08:04:44.936Z,1.30
2018-04-30T08:07:11.872Z,1.07
2018-04-30T08:09:38.731Z,1.30
2018-04-30T08:12:05.694Z,1.40
2018-04-30T08:14:33.013Z,1.23
2018-04-30T08:17:00.642Z,1.20
2018-04-30T08:19:27.573Z,1.33
2018-04-30T08:21:54.469Z,1.50
2018-04-30T08:24:21.391Z,1.33
2018-04-30T08:26:49.057Z,0.77
2018-04-30T08:29:15.998Z,0.77
2018-04-30T08:31:42.929Z,1.20
2018-04-30T08:34:09.802Z,1.23
2018-04-30T08:36:37.496Z,1.00
2018-04-30T08:39:05.421Z,1.60
2018-04-30T08:41:32.361Z,1.23
2018-04-30T08:43:59.248Z,0.93
2018-04-30T08:46:26.115Z,1.30
2018-04-30T08:48:53.049Z,1.67
2018-04-30T08:51:19.999Z,1.10
2018-04-30T08:53:46.871Z,1.20
2018-04-30T08:56:13.753Z,1.30
2018-04-30T08:58:41.485Z,1.50
2018-04-30T09:01:08.347Z,1.10
2018-04-30T09:03:35.279Z,1.10
2018-04-30T09:06:02.202Z,1.43
2018-04-30T09:08:29.139Z,1.23
2018-04-30T09:10:56.081Z,0.97
2018-04-30T09:13:23.069Z,1.07
2018-04-30T09:15:50.002Z,0.87
2018-04-30T09:18:16.870Z,0.90
2018-04-30T09:20:43.903Z,0.97
2018-04-30T09:23:10.770Z,1.47
2018-04-30T09:25:38.442Z,0.90
2018-04-30T09:28:06.068Z,0.80
2018-04-30T09:30:33.006Z,1.20
2018-04-30T09:32:59.873Z,0.90
2018-04-30T09:35:26.763Z,1.00
2018-04-30T09:37:53.688Z,0.90
2018-04-30T09:40:20.548Z,0.87
2018-04-30T09:42:47.484Z,0.80
2018-04-30T09:45:14.437Z,0.70
2018-04-30T09:47:41.293Z,0.90
2018-04-30T09:50:08.184Z,0.83
2018-04-30T09:52:36.091Z,1.30
2018-04-30T09:55:03.864Z,1.00
2018-04-30T09:57:32.077Z,1.00
2018-04-30T09:59:58.994Z,0.70
2018-04-30T10:02:25.933Z,0.90
2018-04-30T10:04:52.818Z,0.87
2018-04-30T10:07:19.809Z,0.80
2018-04-30T10:09:46.691Z,0.80
2018-04-30T10:12:13.633Z,0.90
2018-04-30T10:14:40.481Z,0.80
2018-04-30T10:17:07.410Z,0.80
2018-04-30T10:19:34.284Z,1.00
2018-04-30T10:22:01.217Z,0.70
2018-04-30T10:24:28.074Z,1.03
2018-04-30T10:26:54.999Z,0.73
2018-04-30T10:29:21.879Z,0.70
2018-04-30T10:31:48.813Z,1.00
2018-04-30T10:34:15.713Z,0.70
2018-04-30T10:36:42.656Z,0.70
2018-04-30T10:39:09.591Z,0.70
2018-04-30T10:41:37.201Z,1.57
2018-04-30T10:44:04.226Z,0.90
2018-04-30T10:46:31.098Z,0.70
2018-04-30T10:48:58.053Z,1.03
2018-04-30T10:51:24.922Z,0.80
2018-04-30T10:53:52.632Z,0.90
2018-04-30T10:56:19.574Z,0.83
2018-04-30T10:58:46.447Z,0.90
2018-04-30T11:01:13.385Z,0.90
2018-04-30T11:03:41.268Z,1.23
2018-04-30T11:06:08.190Z,0.70
2018-04-30T11:08:35.046Z,0.70
2018-04-30T11:11:01.992Z,0.90
2018-04-30T11:13:28.998Z,0.73
2018-04-30T11:15:56.677Z,1.13
2018-04-30T11:18:23.554Z,0.67
2018-04-30T11:20:50.494Z,0.77
2018-04-30T11:23:17.377Z,0.60
2018-04-30T11:25:45.055Z,0.50
2018-04-30T11:28:12.805Z,0.63
2018-04-30T11:30:39.762Z,0.83
2018-04-30T11:33:06.710Z,1.00
2018-04-30T11:35:33.655Z,1.00
2018-04-30T11:38:01.580Z,0.80
2018-04-30T11:40:28.482Z,0.70
2018-04-30T11:42:55.455Z,0.60
2018-04-30T11:45:22.402Z,0.80
2018-04-30T11:47:50.142Z,0.73
2018-04-30T11:50:17.092Z,0.70
2018-04-30T11:52:44.026Z,0.67
2018-04-30T11:55:11.001Z,0.80
2018-04-30T11:57:37.974Z,0.73
2018-04-30T12:00:05.206Z,0.60
2018-04-30T12:02:33.633Z,0.73
2018-04-30T12:05:07.937Z,1.10
2018-04-30T12:07:35.438Z,0.90
2018-04-30T12:10:02.353Z,0.80
2018-04-30T12:12:29.321Z,1.20
2018-04-30T12:14:56.266Z,0.80
2018-04-30T12:17:26.455Z,1.50
2018-04-30T12:19:53.397Z,1.03
2018-04-30T12:22:27.882Z,1.10
2018-04-30T12:25:00.034Z,1.00
2018-04-30T12:27:26.983Z,0.80
2018-04-30T12:29:53.925Z,0.70
2018-04-30T12:32:21.148Z,1.03
2018-04-30T12:34:48.814Z,0.70
2018-04-30T12:37:15.801Z,1.07
2018-04-30T12:39:42.680Z,0.97
2018-04-30T12:42:09.639Z,0.90
2018-04-30T12:44:36.848Z,0.87
2018-04-30T12:47:11.354Z,0.87
2018-04-30T12:49:39.339Z,0.90
2018-04-30T12:52:12.132Z,1.00
2018-04-30T12:54:39.529Z,1.20
2018-04-30T12:57:06.542Z,0.77
2018-04-30T12:59:33.539Z,0.93
2018-04-30T13:02:00.466Z,1.17
2018-04-30T13:04:27.370Z,1.53
2018-04-30T13:06:54.302Z,1.07
2018-04-30T13:09:21.175Z,1.00
2018-04-30T13:11:48.114Z,1.07
2018-04-30T13:14:14.975Z,1.10
2018-04-30T13:16:41.945Z,1.20
2018-04-30T13:19:08.803Z,1.30
2018-04-30T13:21:35.674Z,0.90
2018-04-30T13:24:02.678Z,1.23
2018-04-30T13:26:29.555Z,1.00
2018-04-30T13:28:57.227Z,1.00
2018-04-30T13:31:24.182Z,1.13
2018-04-30T13:33:51.111Z,0.90
2018-04-30T13:36:25.408Z,1.23
2018-04-30T13:38:54.728Z,1.23
2018-04-30T13:41:22.418Z,1.13
2018-04-30T13:43:52.731Z,1.10
2018-04-30T13:46:19.679Z,1.10
2018-04-30T13:48:46.617Z,1.37
2018-04-30T13:51:13.571Z,0.90
2018-04-30T13:53:41.298Z,1.00
2018-04-30T13:56:09.779Z,0.70
2018-04-30T13:58:37.999Z,0.80
2018-04-30T14:01:05.881Z,0.93
2018-04-30T14:03:34.765Z,0.60
2018-04-30T14:06:03.937Z,0.70
2018-04-30T14:08:30.954Z,0.90
2018-04-30T14:10:57.959Z,0.77
2018-04-30T14:13:24.875Z,0.63
2018-04-30T14:15:54.923Z,0.90
2018-04-30T14:18:23.380Z,0.90
2018-04-30T14:20:52.201Z,0.97
2018-04-30T14:23:20.513Z,0.87
2018-04-30T14:25:49.095Z,1.10
2018-04-30T14:28:17.494Z,1.03
2018-04-30T14:30:45.989Z,1.00
2018-04-30T14:33:15.057Z,0.73
2018-04-30T14:35:43.573Z,1.00
2018-04-30T14:38:12.645Z,1.10
2018-04-30T14:40:41.102Z,0.70
2018-04-30T14:43:09.499Z,0.73
2018-04-30T14:45:51.234Z,1.20
2018-04-30T14:48:21.672Z,1.33
2018-04-30T14:50:52.709Z,1.10
2018-04-30T14:53:29.520Z,0.80
2018-04-30T14:55:59.861Z,1.40
2018-04-30T14:58:32.123Z,1.37
2018-04-30T15:01:03.541Z,2.87
2018-04-30T15:03:32.872Z,1.00
2018-04-30T15:06:01.264Z,1.20
2018-04-30T15:08:31.363Z,1.33
2018-04-30T15:10:59.864Z,1.00
2018-04-30T15:13:29.287Z,1.23
2018-04-30T15:15:59.168Z,1.03
2018-04-30T15:18:27.662Z,1.50
2018-04-30T15:21:04.759Z,1.10
2018-04-30T15:23:34.231Z,1.07
2018-04-30T15:26:05.389Z,0.87
2018-04-30T15:28:42.422Z,0.90
2018-04-30T15:31:20.434Z,0.93
2018-04-30T15:33:53.313Z,1.60
2018-04-30T15:36:34.201Z,1.80
2018-04-30T15:39:07.880Z,1.03
2018-04-30T15:41:40.511Z,0.80
2018-04-30T15:44:12.671Z,0.90
2018-04-30T15:46:41.106Z,0.90
2018-04-30T15:49:08.905Z,0.80
2018-04-30T15:51:35.830Z,1.30
2018-04-30T15:54:03.467Z,1.33
2018-04-30T15:56:39.436Z,0.93
2018-04-30T15:59:16.825Z,1.20
2018-04-30T16:01:44.250Z,1.30
2018-04-30T16:04:11.250Z,1.30
2018-04-30T16:06:38.889Z,0.90
2018-04-30T16:09:06.577Z,0.70
2018-04-30T16:11:33.530Z,0.83
2018-04-30T16:14:00.584Z,0.90
2018-04-30T16:16:27.558Z,0.87
2018-04-30T16:18:54.455Z,1.10
2018-04-30T16:21:22.151Z,0.80
2018-04-30T16:23:49.107Z,0.90
2018-04-30T16:26:16.888Z,2.50
2018-04-30T16:28:43.879Z,0.87
2018-04-30T16:31:13.871Z,1.40
2018-04-30T16:33:43.438Z,0.80
2018-04-30T16:36:10.537Z,1.37
2018-04-30T16:38:37.494Z,1.10
2018-04-30T16:41:05.221Z,1.10
2018-04-30T16:43:32.819Z,0.90
2018-04-30T16:46:00.844Z,1.00
2018-04-30T16:48:27.800Z,0.87
2018-04-30T16:51:06.332Z,1.00
2018-04-30T16:53:46.387Z,1.00
2018-04-30T16:56:25.250Z,0.83
2018-04-30T16:58:59.695Z,1.17
2018-04-30T17:01:40.881Z,1.37
2018-04-30T17:04:18.865Z,0.80
2018-04-30T17:06:46.453Z,0.90
2018-04-30T17:09:13.323Z,0.97
2018-04-30T17:11:40.190Z,0.60
2018-04-30T17:14:07.118Z,0.60
2018-04-30T17:16:34.059Z,0.70
2018-04-30T17:19:01.006Z,0.70
2018-04-30T17:21:27.912Z,0.50
2018-04-30T17:23:54.836Z,0.90
2018-04-30T17:26:21.694Z,0.60
2018-04-30T17:28:48.629Z,0.73
2018-04-30T17:31:16.299Z,0.67
2018-04-30T17:33:43.269Z,1.10
2018-04-30T17:36:10.234Z,1.00
2018-04-30T17:38:37.155Z,0.80
2018-04-30T17:41:04.113Z,0.60
2018-04-30T17:43:31.006Z,0.97
2018-04-30T17:45:57.916Z,0.70
2018-04-30T17:48:24.848Z,0.70
2018-04-30T17:50:51.846Z,0.90
2018-04-30T17:53:18.713Z,0.60
2018-04-30T17:55:45.573Z,0.67
2018-04-30T17:58:12.517Z,0.70
2018-04-30T18:00:39.458Z,1.10
2018-04-30T18:03:07.438Z,1.13
2018-04-30T18:05:34.394Z,1.33
2018-04-30T18:08:01.271Z,0.90
2018-04-30T18:10:28.213Z,1.00
2018-04-30T18:12:55.255Z,0.97
2018-04-30T18:15:22.165Z,0.87
2018-04-30T18:17:49.110Z,0.90
2018-04-30T18:20:16.034Z,0.77
2018-04-30T18:22:43.657Z,0.97
2018-04-30T18:25:10.591Z,0.80
2018-04-30T18:27:37.482Z,0.70
2018-04-30T18:30:05.224Z,1.00
2018-04-30T18:32:32.111Z,1.03
2018-04-30T18:34:59.055Z,0.90
2018-04-30T18:37:25.920Z,1.10
2018-04-30T18:39:52.878Z,0.83
2018-04-30T18:42:22.058Z,0.63
2018-04-30T18:44:49.087Z,0.50
2018-04-30T18:47:16.025Z,0.60
2018-04-30T18:49:44.247Z,0.77
2018-04-30T18:52:11.204Z,0.77
2018-04-30T18:54:38.100Z,0.50
2018-04-30T18:57:10.498Z,1.10
2018-04-30T18:59:37.769Z,1.60
2018-04-30T19:02:04.850Z,0.80
2018-04-30T19:04:37.433Z,1.60
2018-04-30T19:07:04.843Z,0.70
2018-04-30T19:09:31.785Z,0.67
2018-04-30T19:11:58.660Z,0.80
2018-04-30T19:14:26.391Z,2.50
2018-04-30T19:16:54.137Z,0.60
2018-04-30T19:19:21.114Z,0.60
2018-04-30T19:21:48.049Z,0.90
2018-04-30T19:24:14.931Z,0.97
2018-04-30T19:26:41.870Z,0.60
2018-04-30T19:29:08.740Z,0.60
2018-04-30T19:31:36.413Z,0.70
2018-04-30T19:34:04.022Z,0.80
2018-04-30T19:36:30.958Z,0.80
2018-04-30T19:38:57.881Z,0.90
2018-04-30T19:41:25.502Z,0.60
2018-04-30T19:43:52.452Z,0.60
2018-04-30T19:46:19.403Z,0.70
2018-04-30T19:48:46.347Z,0.60
2018-04-30T19:51:13.211Z,0.93
2018-04-30T19:53:44.424Z,0.87
2018-04-30T19:56:13.360Z,0.90
2018-04-30T19:58:48.709Z,0.73
2018-04-30T20:01:16.059Z,0.90
2018-04-30T20:03:43.798Z,0.93
2018-04-30T20:06:12.757Z,1.20
2018-04-30T20:08:39.625Z,0.70
2018-04-30T20:11:16.395Z,0.90
2018-04-30T20:13:45.027Z,0.90
2018-04-30T20:16:16.432Z,0.87
2018-04-30T20:18:43.936Z,0.70
2018-04-30T20:21:11.258Z,0.80
2018-04-30T20:23:38.193Z,0.90
2018-04-30T20:26:06.596Z,0.70
2018-04-30T20:28:35.169Z,0.93
2018-04-30T20:31:09.989Z,0.80
2018-04-30T20:33:39.009Z,0.70
2018-04-30T20:36:06.029Z,0.80
2018-04-30T20:38:32.982Z,0.70
2018-04-30T20:41:01.571Z,0.87
2018-04-30T20:43:28.928Z,0.80
2018-04-30T20:45:56.019Z,0.80
2018-04-30T20:48:22.905Z,0.77
2018-04-30T20:50:50.539Z,0.90
2018-04-30T20:53:18.730Z,1.20
2018-04-30T20:55:45.909Z,0.60
2018-04-30T20:58:12.907Z,1.00
2018-04-30T21:00:39.944Z,0.70
2018-04-30T21:03:06.940Z,0.80
2018-04-30T21:05:34.022Z,1.07
2018-04-30T21:08:01.039Z,1.10
2018-04-30T21:10:27.933Z,0.87
2018-04-30T21:12:54.878Z,0.80
2018-04-30T21:15:21.833Z,0.70
2018-04-30T21:17:48.795Z,1.00
2018-04-30T21:20:16.602Z,0.70
2018-04-30T21:22:43.550Z,0.80
2018-04-30T21:25:10.461Z,1.47
2018-04-30T21:27:37.445Z,0.70
2018-04-30T21:30:04.358Z,0.80
2018-04-30T21:32:31.316Z,0.93
2018-04-30T21:34:59.550Z,1.37
2018-04-30T21:37:27.530Z,0.70
2018-04-30T21:39:55.760Z,0.87
2018-04-30T21:42:23.678Z,0.80
2018-04-30T21:44:52.658Z,0.93
2018-04-30T21:47:22.976Z,0.80
2018-04-30T21:49:51.199Z,1.37
2018-04-30T21:52:20.124Z,0.77
2018-04-30T21:54:47.104Z,0.70
2018-04-30T21:57:14.035Z,0.93
2018-04-30T21:59:40.899Z,0.90
2018-04-30T22:02:07.833Z,0.80
2018-04-30T22:04:36.170Z,0.90
2018-04-30T22:07:03.970Z,1.17
2018-04-30T22:09:30.929Z,0.90
2018-04-30T22:11:57.897Z,1.20
2018-04-30T22:14:25.200Z,1.07
2018-04-30T22:16:52.342Z,0.80
2018-04-30T22:19:19.462Z,0.93
2018-04-30T22:21:46.487Z,0.90
2018-04-30T22:24:14.319Z,0.97
2018-04-30T22:26:41.258Z,1.00
2018-04-30T22:29:09.011Z,1.10
2018-04-30T22:31:35.942Z,1.00
2018-04-30T22:34:03.627Z,1.00
2018-04-30T22:36:31.594Z,1.07
2018-04-30T22:38:58.539Z,1.00
2018-04-30T22:41:25.486Z,0.90
2018-04-30T22:43:53.707Z,1.27
2018-04-30T22:46:21.502Z,1.00
2018-04-30T22:48:49.067Z,1.00
2018-04-30T22:51:17.112Z,1.30
2018-04-30T22:53:45.229Z,1.10
2018-04-30T22:56:12.290Z,1.30
2018-04-30T22:58:39.238Z,1.00
2018-04-30T23:01:06.128Z,1.30
2018-04-30T23:03:33.082Z,1.20
2018-04-30T23:06:00.989Z,1.30
2018-04-30T23:08:28.436Z,1.13
2018-04-30T23:10:56.736Z,1.63
2018-04-30T23:13:25.369Z,1.20
2018-04-30T23:15:52.513Z,1.00
2018-04-30T23:18:19.395Z,1.17
2018-04-30T23:20:46.456Z,1.47
2018-04-30T23:23:13.346Z,1.23
2018-04-30T23:25:40.296Z,1.07
2018-04-30T23:28:07.154Z,1.07
2018-04-30T23:30:34.078Z,1.20
2018-04-30T23:33:01.101Z,1.43
2018-04-30T23:35:28.769Z,0.80
2018-04-30T23:37:55.641Z,1.30
2018-04-30T23:40:22.576Z,1.30
2018-04-30T23:42:49.539Z,1.27
2018-04-30T23:45:16.417Z,1.30
2018-04-30T23:47:43.357Z,0.90
2018-04-30T23:50:10.227Z,1.00
2018-04-30T23:52:37.169Z,0.73
2018-04-30T23:55:04.184Z,0.90
2018-04-30T23:57:31.082Z,0.80
2018-04-30T23:59:58.763Z,1.10
